Time;durP1;ratioP1;P1;durP2;ratioP2;P2;SDS_P1;SDS_P2;PMS_P1;PMS_P2;Temp;Humidity;BMP_temperature;BMP_pressure;BME280_temperature;BME280_humidity;BME280_pressure;Samples;Min_cycle;Max_cycle;Signal;HPM_P1;HPM_P2
2022/10/14 00:00:30;;;;;;;7.78;5.43;;;;;;;20.97;51.21;101309.75;5072774;28;20081;-62
2022/10/14 00:02:56;;;;;;;9.93;4.20;;;;;;;21.02;51.44;101310.03;5055083;28;20451;-62
2022/10/14 00:05:21;;;;;;;10.90;5.15;;;;;;;21.04;50.88;101305.28;5073059;28;20112;-63
2022/10/14 00:07:46;;;;;;;6.30;4.15;;;;;;;21.05;50.39;101311.56;5072836;28;20390;-63
2022/10/14 00:10:12;;;;;;;7.32;4.35;;;;;;;21.06;51.37;101300.47;5072640;28;20375;-63
2022/10/14 00:12:37;;;;;;;6.97;3.78;;;;;;;21.05;51.17;101300.69;5054632;28;20037;-63
2022/10/14 00:15:03;;;;;;;18.58;4.85;;;;;;;21.04;51.20;101299.81;5072584;28;20115;-63
2022/10/14 00:17:28;;;;;;;6.22;3.88;;;;;;;21.02;50.93;101301.88;5072427;28;20479;-62
2022/10/14 00:19:54;;;;;;;14.68;4.75;;;;;;;21.01;50.47;101293.91;5054398;28;20070;-62
2022/10/14 00:22:19;;;;;;;5.88;3.65;;;;;;;20.99;50.90;101299.53;5052402;28;20424;-63
2022/10/14 00:24:44;;;;;;;7.18;3.95;;;;;;;20.99;50.85;101301.41;5052441;28;20461;-63
2022/10/14 00:27:10;;;;;;;6.75;4.10;;;;;;;20.99;51.82;101299.53;5052487;28;20106;-63
2022/10/14 00:29:35;;;;;;;7.70;3.75;;;;;;;20.96;50.95;101294.47;5052499;28;20040;-63
2022/10/14 00:32:00;;;;;;;7.43;3.83;;;;;;;21.00;50.77;101294.91;5034409;28;20029;-63
2022/10/14 00:34:26;;;;;;;8.73;3.35;;;;;;;20.97;51.34;101287.97;5052097;28;20113;-63
2022/10/14 00:36:51;;;;;;;8.30;3.92;;;;;;;21.00;51.06;101293.03;5034528;28;20051;-63
2022/10/14 00:39:16;;;;;;;5.13;3.10;;;;;;;21.00;51.23;101286.75;5052183;28;20111;-62
2022/10/14 00:41:42;;;;;;;4.22;3.00;;;;;;;21.01;51.68;101289.31;5052153;28;20025;-62
2022/10/14 00:44:13;;;;;;;5.70;3.28;;;;;;;21.00;51.10;101271.25;5052285;28;20113;-63
2022/10/14 00:46:43;;;;;;;7.85;3.00;;;;;;;20.99;51.26;101280.47;5052148;28;20052;-63
2022/10/14 00:49:22;;;;;;;4.53;3.03;;;;;;;20.97;50.95;101277.06;5052519;28;20021;-63
2022/10/14 00:51:51;;;;;;;4.18;2.63;;;;;;;20.84;51.42;101257.81;4998944;28;1140300;-62
2022/10/14 00:54:17;;;;;;;7.88;2.80;;;;;;;20.95;51.61;101275.56;5042281;28;20058;-62
2022/10/14 00:56:44;;;;;;;5.03;2.63;;;;;;;20.95;51.44;101261.94;5077041;28;20482;-62
2022/10/14 00:59:09;;;;;;;4.00;3.05;;;;;;;20.94;51.73;101263.81;5058895;28;20036;-62
2022/10/14 01:01:35;;;;;;;3.55;2.42;;;;;;;20.88;52.19;101254.50;5059011;28;20382;-62
2022/10/14 01:04:00;;;;;;;3.63;2.47;;;;;;;20.95;51.07;101264.66;5059160;28;20491;-63
2022/10/14 01:06:35;;;;;;;7.88;2.90;;;;;;;20.94;51.52;101266.53;5075270;28;20115;-63
2022/10/14 01:09:27;;;;;;;2.85;2.05;;;;;;;20.96;51.28;101272.66;5056668;28;20437;-63
2022/10/14 01:12:12;;;;;;;4.70;3.00;;;;;;;20.95;51.51;101270.13;5056930;28;20025;-63
2022/10/14 01:14:52;;;;;;;3.85;2.30;;;;;;;20.98;51.36;101269.75;5056781;28;20071;-62
2022/10/14 01:17:29;;;;;;;3.15;2.30;;;;;;;21.00;51.99;101262.22;5038622;28;20040;-62
2022/10/14 01:20:42;;;;;;;2.85;2.38;;;;;;;21.01;52.03;101256.59;5038797;28;20029;-62
2022/10/14 01:23:32;;;;;;;4.27;2.77;;;;;;;21.02;51.79;101255.56;4995179;28;20546;-62
2022/10/14 01:26:17;;;;;;;2.20;1.80;;;;;;;21.02;51.89;101241.94;4995177;28;20030;-62
2022/10/14 01:29:17;;;;;;;2.78;2.10;;;;;;;21.05;51.72;101240.75;4978851;28;20500;-63
2022/10/14 01:31:45;;;;;;;3.53;2.55;;;;;;;21.08;52.29;101234.97;4978647;28;20030;-63
2022/10/14 01:34:12;;;;;;;4.38;1.98;;;;;;;21.11;51.58;101237.28;4978778;28;20042;-63
2022/10/14 01:36:45;;;;;;;3.88;2.10;;;;;;;21.13;51.12;101233.38;4978694;28;20065;-62
2022/10/14 01:39:15;;;;;;;4.32;2.45;;;;;;;21.14;51.95;101226.84;4978698;28;20089;-63
2022/10/14 01:41:45;;;;;;;3.15;1.90;;;;;;;21.16;51.94;101232.97;4978581;28;20034;-63
2022/10/14 01:44:11;;;;;;;8.15;2.20;;;;;;;21.17;51.21;101222.91;4978598;28;20037;-62
2022/10/14 01:46:39;;;;;;;2.15;1.92;;;;;;;21.18;51.53;101217.28;4994862;28;20477;-63
2022/10/14 01:49:14;;;;;;;4.38;2.05;;;;;;;21.20;51.92;101217.09;4978426;28;20419;-62
2022/10/14 01:52:04;;;;;;;2.95;1.88;;;;;;;21.20;51.42;101215.22;4961925;28;20054;-62
2022/10/14 01:54:33;;;;;;;3.40;1.77;;;;;;;21.21;52.06;101203.28;5004169;28;20061;-63
2022/10/14 01:57:02;;;;;;;2.90;1.80;;;;;;;21.24;51.26;101197.47;5038112;28;20032;-64
2022/10/14 01:59:28;;;;;;;4.85;1.63;;;;;;;21.27;51.16;101207.97;5057101;28;20534;-62
2022/10/14 02:01:53;;;;;;;5.28;1.88;;;;;;;21.27;51.95;101205.22;5057553;28;20490;-62
2022/10/14 02:04:20;;;;;;;3.60;2.10;;;;;;;21.28;51.70;101204.22;5057763;28;20047;-62
2022/10/14 02:07:14;;;;;;;2.55;1.77;;;;;;;21.28;51.99;101206.94;5075740;28;20401;-62
2022/10/14 02:09:46;;;;;;;3.05;1.60;;;;;;;21.28;51.19;101204.22;5051699;28;20071;-63
2022/10/14 02:12:15;;;;;;;4.35;1.80;;;;;;;21.30;51.69;101204.03;5075791;28;20032;-62
2022/10/14 02:15:19;;;;;;;5.25;1.83;;;;;;;21.30;50.92;101193.13;5075420;28;20032;-63
2022/10/14 02:18:38;;;;;;;4.55;1.90;;;;;;;21.28;51.12;101204.22;5034605;28;20174;-63
2022/10/14 02:21:09;;;;;;;3.22;1.80;;;;;;;21.28;51.07;101197.91;5025489;28;20051;-63
2022/10/14 02:23:39;;;;;;;1.80;1.30;;;;;;;21.28;51.05;101190.56;5057497;28;20020;-62
2022/10/14 02:26:05;;;;;;;3.03;1.85;;;;;;;21.27;51.20;101191.59;5075303;28;20032;-62
2022/10/14 02:28:31;;;;;;;4.57;1.38;;;;;;;21.26;51.59;101187.22;5057449;28;20025;-62
2022/10/14 02:30:59;;;;;;;6.28;1.60;;;;;;;21.25;51.18;101171.88;5057445;28;20067;-62
2022/10/14 02:33:35;;;;;;;3.78;1.95;;;;;;;21.25;51.26;101176.47;5057119;28;20020;-62
2022/10/14 02:36:02;;;;;;;2.78;1.67;;;;;;;21.21;51.57;101173.31;5057349;28;20027;-63
2022/10/14 02:38:28;;;;;;;4.30;1.48;;;;;;;21.27;51.34;101172.53;5075086;28;20025;-63
2022/10/14 02:40:54;;;;;;;3.00;1.80;;;;;;;21.28;52.10;101173.38;5057202;28;20063;-63
2022/10/14 02:43:19;;;;;;;3.90;1.83;;;;;;;21.26;51.25;101170.84;5074893;28;20473;-63
2022/10/14 02:45:45;;;;;;;3.58;1.50;;;;;;;21.24;51.90;101170.22;5074879;28;20037;-63
2022/10/14 02:48:11;;;;;;;4.30;1.80;;;;;;;21.26;51.47;101168.13;5057028;28;20024;-63
2022/10/14 02:50:37;;;;;;;3.30;1.10;;;;;;;21.24;51.45;101164.75;5074730;28;20063;-63
2022/10/14 02:53:02;;;;;;;3.88;1.40;;;;;;;21.28;51.32;101171.50;5074715;28;20060;-62
2022/10/14 02:55:27;;;;;;;1.48;1.15;;;;;;;21.28;52.10;101160.59;5074671;28;20024;-63
2022/10/14 02:57:53;;;;;;;3.20;1.70;;;;;;;21.30;51.76;101163.97;5074707;28;20494;-63
2022/10/14 03:00:19;;;;;;;1.80;1.40;;;;;;;21.27;51.77;101150.72;5074856;28;20390;-62
2022/10/14 03:02:44;;;;;;;2.40;1.30;;;;;;;21.33;51.70;101160.88;5074537;28;20031;-62
2022/10/14 03:05:10;;;;;;;3.15;1.35;;;;;;;21.34;51.28;101159.84;5074647;28;20024;-63
2022/10/14 03:07:35;;;;;;;1.33;1.17;;;;;;;21.36;52.06;101156.91;5074464;28;20025;-62
2022/10/14 03:10:01;;;;;;;3.70;1.58;;;;;;;21.37;51.42;101150.44;5074133;28;20123;-63
2022/10/14 03:12:27;;;;;;;1.75;1.27;;;;;;;21.38;51.52;101147.50;5073434;28;20067;-63
2022/10/14 03:14:52;;;;;;;1.60;1.13;;;;;;;21.41;51.87;101149.03;5074329;28;20039;-63
2022/10/14 03:17:17;;;;;;;3.72;1.10;;;;;;;21.41;51.12;101141.66;5074235;28;20158;-62
2022/10/14 03:19:43;;;;;;;2.03;1.10;;;;;;;21.38;51.47;101133.88;5074239;28;20120;-63
2022/10/14 03:22:08;;;;;;;1.75;1.33;;;;;;;21.41;51.55;101144.41;5074267;28;20028;-63
2022/10/14 03:24:34;;;;;;;3.28;1.20;;;;;;;21.42;50.99;101137.91;5064638;28;20044;-62
2022/10/14 03:26:59;;;;;;;2.08;1.33;;;;;;;21.42;51.00;101135.19;5054180;28;20033;-63
2022/10/14 03:29:24;;;;;;;3.25;1.30;;;;;;;21.43;51.25;101136.91;5054129;28;20048;-63
2022/10/14 03:31:50;;;;;;;5.03;1.65;;;;;;;21.41;51.42;101133.50;5036291;28;20055;-62
2022/10/14 03:34:15;;;;;;;2.08;1.30;;;;;;;21.45;51.79;101131.25;5054129;28;20108;-63
2022/10/14 03:36:41;;;;;;;1.00;0.88;;;;;;;21.43;51.04;101125.16;5053982;28;20476;-63
2022/10/14 03:39:06;;;;;;;1.02;0.93;;;;;;;21.42;51.62;101129.75;5036054;28;20477;-63
2022/10/14 03:41:32;;;;;;;2.25;1.20;;;;;;;21.35;51.27;101117.94;5036106;28;20029;-63
2022/10/14 03:43:57;;;;;;;2.10;1.48;;;;;;;21.41;50.99;101122.59;5054052;28;20040;-62
2022/10/14 03:46:22;;;;;;;1.65;1.55;;;;;;;21.40;51.58;101120.91;5053825;28;20029;-63
2022/10/14 03:48:48;;;;;;;1.75;1.27;;;;;;;21.39;51.56;101124.69;5036041;28;20033;-63
2022/10/14 03:51:13;;;;;;;3.63;1.73;;;;;;;21.36;51.73;101114.16;5053555;28;20064;-63
2022/10/14 03:53:39;;;;;;;3.95;1.38;;;;;;;21.38;51.91;101116.72;5053996;28;20124;-63
2022/10/14 03:56:05;;;;;;;3.40;1.40;;;;;;;21.36;51.35;101111.44;5053487;28;20057;-63
2022/10/14 03:58:30;;;;;;;1.55;1.40;;;;;;;21.39;51.46;101104.75;5019360;28;20063;-63
2022/10/14 04:00:55;;;;;;;1.05;0.98;;;;;;;21.39;50.91;101102.88;5035612;28;20104;-63
2022/10/14 04:03:21;;;;;;;2.53;1.65;;;;;;;21.41;51.24;101100.78;5053542;28;20028;-63
2022/10/14 04:05:46;;;;;;;2.78;1.63;;;;;;;21.44;52.04;101103.13;5053455;28;20028;-62
2022/10/14 04:08:12;;;;;;;3.30;1.85;;;;;;;21.44;51.60;101094.94;5053430;28;20048;-67
2022/10/14 04:10:37;;;;;;;2.50;1.55;;;;;;;21.47;52.00;101096.44;5053516;28;20025;-63
2022/10/14 04:13:03;;;;;;;3.70;1.20;;;;;;;21.47;51.98;101100.03;5053185;28;20051;-63
2022/10/14 04:15:28;;;;;;;2.78;1.60;;;;;;;21.48;50.97;101098.16;5053625;28;20423;-62
2022/10/14 04:17:55;;;;;;;3.28;1.70;;;;;;;21.50;51.11;101097.97;5053351;28;20031;-62
2022/10/14 04:20:20;;;;;;;2.20;1.13;;;;;;;21.48;51.88;101101.72;5053183;28;20112;-63
2022/10/14 04:22:45;;;;;;;4.38;1.30;;;;;;;21.46;51.90;101103.81;5053376;28;20123;-63
2022/10/14 04:25:11;;;;;;;3.30;1.70;;;;;;;21.50;51.01;101100.69;5035331;28;20029;-63
2022/10/14 04:27:36;;;;;;;1.33;1.23;;;;;;;21.49;51.88;101099.84;5053160;28;20061;-63
2022/10/14 04:30:02;;;;;;;1.35;1.20;;;;;;;21.48;52.01;101100.88;5053023;28;20091;-63
2022/10/14 04:32:27;;;;;;;2.30;1.58;;;;;;;21.46;51.02;101098.34;5053086;28;20041;-62
2022/10/14 04:34:53;;;;;;;2.05;1.00;;;;;;;21.47;51.74;101100.03;5052923;28;20028;-63
2022/10/14 04:37:19;;;;;;;3.13;1.55;;;;;;;21.48;51.33;101090.81;5053383;28;20032;-63
2022/10/14 04:39:44;;;;;;;2.75;1.40;;;;;;;21.48;51.55;101096.25;5053049;28;20029;-62
2022/10/14 04:42:10;;;;;;;2.78;1.10;;;;;;;21.48;51.00;101090.81;5035140;28;20037;-63
2022/10/14 04:44:35;;;;;;;1.50;0.98;;;;;;;21.49;51.46;101091.66;5035214;28;20071;-63
2022/10/14 04:47:00;;;;;;;2.70;0.90;;;;;;;21.48;51.77;101095.41;5052926;28;20037;-63
2022/10/14 04:49:26;;;;;;;2.60;1.00;;;;;;;21.51;51.42;101094.19;5035307;28;20489;-63
2022/10/14 04:51:51;;;;;;;1.25;0.98;;;;;;;21.48;51.25;101085.38;5052665;28;20045;-63
2022/10/14 04:54:16;;;;;;;1.20;1.10;;;;;;;21.51;51.81;101088.72;5061634;28;20035;-63
2022/10/14 04:56:42;;;;;;;3.72;1.90;;;;;;;21.53;51.42;101087.50;5072917;28;20500;-63
2022/10/14 04:59:07;;;;;;;1.00;1.00;;;;;;;21.54;50.83;101083.75;5072844;28;20060;-63
2022/10/14 05:01:32;;;;;;;1.92;1.23;;;;;;;21.54;51.42;101083.75;5072925;28;20090;-63
2022/10/14 05:03:58;;;;;;;1.65;0.90;;;;;;;21.54;51.89;101077.44;5072833;28;20029;-63
2022/10/14 05:06:23;;;;;;;1.20;1.10;;;;;;;21.54;51.73;101075.56;5054958;28;20115;-63
2022/10/14 05:08:48;;;;;;;3.30;1.35;;;;;;;21.55;51.08;101074.53;5054979;28;20448;-63
2022/10/14 05:11:14;;;;;;;1.40;1.10;;;;;;;21.56;51.69;101069.91;5072732;28;20024;-63
2022/10/14 05:13:40;;;;;;;1.75;1.40;;;;;;;21.57;51.78;101069.72;5072657;28;20094;-63
2022/10/14 05:16:06;;;;;;;1.23;1.05;;;;;;;21.58;51.20;101070.56;5072749;28;20074;-63
2022/10/14 05:18:31;;;;;;;6.68;0.95;;;;;;;21.59;51.72;101064.06;5072922;28;20028;-63
2022/10/14 05:20:58;;;;;;;0.80;0.80;;;;;;;21.59;51.11;101069.50;5072891;28;20044;-63
2022/10/14 05:23:23;;;;;;;1.45;1.27;;;;;;;21.58;51.72;101065.94;5068370;28;20032;-63
2022/10/14 05:25:50;;;;;;;1.60;1.00;;;;;;;21.53;51.90;101062.09;5062012;28;20065;-63
2022/10/14 05:28:16;;;;;;;1.83;1.08;;;;;;;21.55;51.67;101062.78;5072075;28;20028;-63
2022/10/14 05:30:41;;;;;;;1.98;1.30;;;;;;;21.53;51.92;101052.06;5055641;28;20032;-63
2022/10/14 05:33:06;;;;;;;1.20;1.10;;;;;;;21.50;51.50;101055.16;5052519;28;20079;-63
2022/10/14 05:35:32;;;;;;;3.13;1.20;;;;;;;21.47;51.94;101059.13;5053465;28;20451;-63
2022/10/14 05:37:57;;;;;;;1.13;1.02;;;;;;;21.45;51.24;101055.75;5056176;28;20461;-62
2022/10/14 05:40:23;;;;;;;3.22;1.08;;;;;;;21.46;51.13;101052.00;5056198;28;20032;-62
2022/10/14 05:42:48;;;;;;;1.38;1.20;;;;;;;21.40;52.08;101047.31;5021098;28;20060;-62
2022/10/14 05:45:14;;;;;;;1.20;1.10;;;;;;;21.41;51.39;101048.19;5056408;28;20124;-62
2022/10/14 05:47:42;;;;;;;1.33;1.23;;;;;;;21.38;52.32;101046.66;5064175;28;20040;-62
2022/10/14 05:50:07;;;;;;;2.97;1.30;;;;;;;21.34;52.07;101045.38;5075899;28;20032;-63
2022/10/14 05:52:34;;;;;;;2.03;0.95;;;;;;;21.29;51.87;101047.84;5075615;28;20064;-63
2022/10/14 05:54:59;;;;;;;2.13;1.30;;;;;;;21.25;52.30;101046.53;5075952;28;20037;-62
2022/10/14 05:57:26;;;;;;;2.30;1.02;;;;;;;21.20;52.04;101032.66;5075803;28;20082;-63
2022/10/14 05:59:51;;;;;;;1.65;0.90;;;;;;;21.18;52.60;101029.28;5058101;28;20133;-63
2022/10/14 06:02:17;;;;;;;1.40;0.90;;;;;;;21.17;52.31;101022.13;5075819;28;20511;-62
2022/10/14 06:04:42;;;;;;;0.85;0.77;;;;;;;21.16;52.28;101020.44;5075429;28;20462;-63
2022/10/14 06:07:10;;;;;;;1.30;0.68;;;;;;;21.13;52.23;101015.41;5075674;28;20389;-63
2022/10/14 06:09:37;;;;;;;1.42;0.70;;;;;;;21.17;52.44;101029.44;5075678;28;20033;-63
2022/10/14 06:12:02;;;;;;;1.30;1.05;;;;;;;21.16;52.25;101022.34;5075554;28;20044;-63
2022/10/14 06:14:28;;;;;;;2.08;1.10;;;;;;;21.17;52.28;101022.13;5075633;28;20025;-63
2022/10/14 06:16:53;;;;;;;1.27;1.02;;;;;;;21.16;52.35;101014.97;5075751;28;20020;-63
2022/10/14 06:19:19;;;;;;;1.70;1.35;;;;;;;21.12;52.73;101016.41;5075387;28;20060;-63
2022/10/14 06:21:44;;;;;;;1.33;1.10;;;;;;;21.12;52.02;101012.84;5075460;28;20025;-63
2022/10/14 06:24:10;;;;;;;1.17;1.08;;;;;;;21.11;52.59;101014.72;5075513;28;20032;-63
2022/10/14 06:26:35;;;;;;;3.33;1.10;;;;;;;21.10;52.02;101021.22;5075344;28;20036;-63
2022/10/14 06:29:01;;;;;;;1.20;1.10;;;;;;;21.10;52.53;101018.50;5075270;28;20082;-63
2022/10/14 06:31:26;;;;;;;2.95;0.93;;;;;;;21.09;52.73;101014.09;5075163;28;20482;-63
2022/10/14 06:33:52;;;;;;;1.63;1.10;;;;;;;21.13;52.10;101009.09;5075228;28;20059;-63
2022/10/14 06:36:17;;;;;;;2.15;1.20;;;;;;;21.12;51.93;101008.25;5057074;28;20115;-63
2022/10/14 06:38:42;;;;;;;0.95;0.95;;;;;;;21.11;52.95;101001.09;5075103;28;20028;-63
2022/10/14 06:41:08;;;;;;;3.78;1.10;;;;;;;21.15;52.19;101007.00;5075106;28;20024;-63
2022/10/14 06:43:34;;;;;;;1.10;1.00;;;;;;;21.15;53.05;100991.50;5075359;28;20375;-63
2022/10/14 06:46:00;;;;;;;3.40;1.52;;;;;;;21.19;52.80;100987.34;5074885;28;20424;-63
2022/10/14 06:48:25;;;;;;;1.10;1.00;;;;;;;21.22;52.22;100991.56;5073727;28;20020;-63
2022/10/14 06:50:51;;;;;;;1.40;1.00;;;;;;;21.23;52.29;100979.63;5074691;28;20028;-63
2022/10/14 06:53:16;;;;;;;1.48;1.27;;;;;;;21.25;51.96;100981.13;5074579;28;20033;-63
2022/10/14 06:55:41;;;;;;;1.23;0.90;;;;;;;21.27;52.91;100981.75;5074682;28;20478;-63
2022/10/14 06:58:07;;;;;;;3.55;1.15;;;;;;;21.30;52.61;100981.38;5074684;28;20061;-63
2022/10/14 07:00:32;;;;;;;4.90;1.15;;;;;;;21.34;52.20;100979.97;5074706;28;20020;-63
2022/10/14 07:02:58;;;;;;;3.47;0.70;;;;;;;21.36;52.78;100977.03;5074584;28;20051;-63
2022/10/14 07:05:23;;;;;;;2.55;0.90;;;;;;;21.36;52.40;100977.88;5074809;28;20031;-63
2022/10/14 07:07:49;;;;;;;0.75;0.75;;;;;;;21.38;51.86;100981.25;5074588;28;20086;-63
2022/10/14 07:10:14;;;;;;;1.40;0.68;;;;;;;21.40;52.50;100979.19;5074507;28;20032;-63
2022/10/14 07:12:40;;;;;;;1.15;1.05;;;;;;;21.41;52.19;100982.75;5074406;28;20035;-63
2022/10/14 07:15:06;;;;;;;1.55;1.00;;;;;;;21.40;52.34;100984.63;5056564;28;20510;-63
2022/10/14 07:17:31;;;;;;;1.00;0.90;;;;;;;21.43;52.36;100989.69;5074377;28;20036;-62
2022/10/14 07:19:56;;;;;;;2.20;1.00;;;;;;;21.46;52.50;100989.31;5074396;28;20394;-63
2022/10/14 07:22:22;;;;;;;2.78;1.08;;;;;;;21.46;52.85;100978.41;5056309;28;20103;-63
2022/10/14 07:24:47;;;;;;;1.20;1.10;;;;;;;21.46;52.65;100972.97;5074402;28;20036;-63
2022/10/14 07:27:14;;;;;;;1.45;1.10;;;;;;;21.48;52.90;100973.59;5074125;28;20489;-63
2022/10/14 07:29:40;;;;;;;1.10;1.00;;;;;;;21.51;52.16;100987.88;5074206;28;20444;-63
2022/10/14 07:32:06;;;;;;;2.42;1.40;;;;;;;21.53;52.82;100977.59;5061794;28;20025;-63
2022/10/14 07:34:33;;;;;;;1.10;0.85;;;;;;;21.56;52.47;100985.38;5054045;28;20029;-63
2022/10/14 07:36:58;;;;;;;3.05;1.15;;;;;;;21.59;52.23;100983.13;5053977;28;20107;-63
2022/10/14 07:39:24;;;;;;;1.65;1.13;;;;;;;21.64;52.81;100982.50;5036219;28;20043;-63
2022/10/14 07:41:50;;;;;;;1.45;1.02;;;;;;;21.68;51.74;100983.81;5036209;28;20033;-63
2022/10/14 07:44:16;;;;;;;2.42;1.30;;;;;;;21.72;52.21;100985.13;5054018;28;20044;-62
2022/10/14 07:46:43;;;;;;;2.17;1.35;;;;;;;21.73;51.83;100993.09;5036048;28;20498;-63
2022/10/14 07:49:20;;;;;;;1.85;1.27;;;;;;;21.78;51.74;100997.94;5019616;28;20029;-63
2022/10/14 07:51:46;;;;;;;2.55;1.25;;;;;;;21.82;52.46;100988.34;5035804;28;20436;-63
2022/10/14 07:54:20;;;;;;;2.47;0.82;;;;;;;21.86;51.84;100985.00;5053902;28;20108;-62
2022/10/14 07:56:48;;;;;;;1.40;1.20;;;;;;;21.93;51.90;100985.09;5035982;28;20110;-63
2022/10/14 07:59:14;;;;;;;4.78;1.30;;;;;;;21.97;51.65;100981.75;5053493;28;20032;-63
2022/10/14 08:01:39;;;;;;;1.63;0.80;;;;;;;22.01;52.16;100983.06;5053395;28;20033;-62
2022/10/14 08:04:05;;;;;;;1.00;0.90;;;;;;;22.04;51.74;100973.63;5053511;28;20027;-63
2022/10/14 08:06:30;;;;;;;1.42;1.13;;;;;;;22.07;52.16;100970.50;5035761;28;20544;-63
2022/10/14 08:08:56;;;;;;;0.90;0.90;;;;;;;22.12;51.41;100973.47;5053501;28;20051;-63
2022/10/14 08:11:24;;;;;;;1.38;1.08;;;;;;;22.14;51.36;100960.44;5053378;28;20033;-63
2022/10/14 08:13:49;;;;;;;1.23;1.00;;;;;;;22.18;52.26;100971.81;5053367;28;20017;-63
2022/10/14 08:16:18;;;;;;;1.15;0.88;;;;;;;22.16;51.95;100963.84;5053451;28;20090;-63
2022/10/14 08:18:44;;;;;;;1.52;0.90;;;;;;;22.19;52.30;100962.59;5058925;28;20034;-63
2022/10/14 08:21:10;;;;;;;1.05;0.95;;;;;;;22.15;52.04;100958.56;5038728;28;20070;-63
2022/10/14 08:23:35;;;;;;;2.28;1.10;;;;;;;22.15;52.09;100956.69;5073293;28;20024;-63
2022/10/14 08:26:00;;;;;;;1.63;1.08;;;;;;;22.11;51.35;100947.22;5055354;28;20036;-63
2022/10/14 08:28:26;;;;;;;1.80;1.23;;;;;;;22.19;51.51;100963.44;5073230;28;20024;-63
2022/10/14 08:30:52;;;;;;;2.60;0.88;;;;;;;22.19;52.28;100960.72;5073142;28;20052;-63
2022/10/14 08:33:17;;;;;;;1.33;1.20;;;;;;;22.18;51.57;100961.75;5072976;28;20060;-63
2022/10/14 08:35:43;;;;;;;1.50;1.05;;;;;;;22.20;51.63;100962.38;5055394;28;20059;-62
2022/10/14 08:38:09;;;;;;;1.38;1.10;;;;;;;22.22;52.58;100964.94;5073147;28;20390;-63
2022/10/14 08:40:51;;;;;;;1.88;1.23;;;;;;;22.22;52.09;100954.81;5055457;28;20029;-64
2022/10/14 08:43:25;;;;;;;2.20;1.27;;;;;;;22.26;51.63;100947.94;5055136;28;20063;-64
2022/10/14 08:45:54;;;;;;;1.48;1.33;;;;;;;22.32;51.75;100958.06;5072977;28;20039;-63
2022/10/14 08:48:22;;;;;;;3.13;1.40;;;;;;;22.34;51.91;100950.50;5053285;28;20470;-64
2022/10/14 08:51:20;;;;;;;2.55;1.20;;;;;;;22.39;51.28;100942.53;5035273;28;20021;-63
2022/10/14 08:53:49;;;;;;;3.95;1.13;;;;;;;22.44;51.45;100940.06;5019240;28;20052;-62
2022/10/14 08:56:16;;;;;;;1.95;1.50;;;;;;;22.50;51.67;100943.84;5035142;28;20108;-63
2022/10/14 08:58:52;;;;;;;1.33;1.10;;;;;;;22.56;51.56;100938.41;5052830;28;20029;-63
2022/10/14 09:01:25;;;;;;;1.88;1.40;;;;;;;22.64;51.04;100937.41;5035319;28;20051;-63
2022/10/14 09:03:56;;;;;;;4.28;1.45;;;;;;;22.71;51.18;100940.16;5034998;28;20025;-64
2022/10/14 09:06:27;;;;;;;2.47;1.52;;;;;;;22.77;51.61;100947.53;5053257;28;20486;-63
2022/10/14 09:09:03;;;;;;;1.65;1.20;;;;;;;22.77;51.84;100934.72;5035108;28;20500;-63
2022/10/14 09:11:31;;;;;;;2.65;1.02;;;;;;;22.82;51.80;100942.31;5055117;28;20435;-62
2022/10/14 09:13:58;;;;;;;2.97;1.60;;;;;;;22.83;51.70;100938.53;5039128;28;20029;-63
2022/10/14 09:16:30;;;;;;;4.22;1.52;;;;;;;22.78;51.18;100930.13;5038905;28;20312;-63
2022/10/14 09:18:57;;;;;;;4.23;1.87;;;;;;;22.75;51.94;100930.53;5038853;28;20031;-62
2022/10/14 09:21:37;;;;;;;7.95;1.67;;;;;;;22.71;51.47;100940.16;5038759;28;20353;-62
2022/10/14 09:24:13;;;;;;;2.35;1.30;;;;;;;22.58;52.13;100933.56;5056483;28;20078;-63
2022/10/14 09:26:44;;;;;;;4.03;1.73;;;;;;;22.41;52.59;100935.00;5038523;28;20029;-63
2022/10/14 09:29:41;;;;;;;2.22;1.48;;;;;;;22.26;52.35;100942.47;5056299;28;20032;-62
2022/10/14 09:32:11;;;;;;;2.67;1.63;;;;;;;22.14;52.23;100949.53;5020935;28;20036;-65
2022/10/14 09:34:49;;;;;;;6.80;1.90;;;;;;;22.05;52.46;100937.94;5040151;28;20032;-67
2022/10/14 09:37:26;;;;;;;2.97;1.63;;;;;;;21.99;53.33;100932.47;5039284;28;20031;-64
2022/10/14 09:39:55;;;;;;;2.75;1.60;;;;;;;21.89;53.32;100931.97;5038465;28;20363;-63
2022/10/14 09:42:23;;;;;;;1.77;1.42;;;;;;;21.88;52.77;100938.47;5022210;28;20085;-62
2022/10/14 09:45:21;;;;;;;4.07;1.35;;;;;;;21.84;53.86;100937.16;5056410;28;20036;-62
2022/10/14 09:47:55;;;;;;;2.08;1.55;;;;;;;21.83;52.74;100940.94;5027217;28;20036;-62
2022/10/14 09:50:50;;;;;;;3.92;1.67;;;;;;;21.80;52.84;100928.50;5038494;28;20029;-62
2022/10/14 09:53:17;;;;;;;2.25;1.50;;;;;;;21.81;53.83;100929.38;5036695;28;20114;-62
2022/10/14 09:55:47;;;;;;;2.33;1.42;;;;;;;21.79;53.07;100921.41;5055931;28;20021;-62
2022/10/14 09:58:16;;;;;;;2.45;1.48;;;;;;;21.80;53.87;100917.59;5055918;28;20031;-62
2022/10/14 10:00:41;;;;;;;3.30;1.80;;;;;;;21.85;53.26;100925.22;5063526;28;20025;-61
2022/10/14 10:03:23;;;;;;;3.17;1.95;;;;;;;21.85;54.06;100917.88;5076054;28;20474;-62
2022/10/14 10:05:58;;;;;;;2.60;1.67;;;;;;;21.88;53.67;100924.84;5058178;28;20047;-62
2022/10/14 10:08:24;;;;;;;3.58;1.52;;;;;;;21.89;54.10;100912.88;5075763;28;20508;-62
2022/10/14 10:11:12;;;;;;;5.03;1.70;;;;;;;21.91;54.12;100905.34;5075911;28;20039;-62
2022/10/14 10:13:43;;;;;;;5.82;1.65;;;;;;;21.93;53.32;100908.72;5075512;28;20118;-62
2022/10/14 10:16:20;;;;;;;4.72;1.65;;;;;;;21.97;54.10;100904.56;5057856;28;20035;-62
2022/10/14 10:18:46;;;;;;;3.13;1.65;;;;;;;22.00;53.10;100904.97;5075537;28;20040;-63
2022/10/14 10:21:28;;;;;;;2.00;1.40;;;;;;;22.04;54.14;100908.16;5075185;28;20024;-62
2022/10/14 10:23:58;;;;;;;1.98;1.70;;;;;;;22.07;54.09;100905.00;5075259;28;20024;-62
2022/10/14 10:26:32;;;;;;;2.10;1.85;;;;;;;22.11;54.26;100895.38;5075388;28;20021;-63
2022/10/14 10:29:01;;;;;;;2.17;1.98;;;;;;;22.14;53.54;100897.69;5075612;28;20111;-63
2022/10/14 10:31:56;;;;;;;2.33;1.67;;;;;;;22.22;53.02;100889.31;5075504;28;20531;-62
2022/10/14 10:34:46;;;;;;;5.15;2.03;;;;;;;22.27;53.67;100888.72;5066044;28;20071;-62
2022/10/14 10:37:29;;;;;;;4.68;1.92;;;;;;;22.28;53.88;100884.97;5075140;28;20081;-63
2022/10/14 10:39:59;;;;;;;;;;;;;;;22.29;53.01;100884.75;5057675;28;20033;-62
2022/10/14 10:42:29;;;;;;;5.22;1.63;;;;;;;22.34;52.83;100882.25;5057211;28;19931;-62
2022/10/14 10:44:57;;;;;;;4.25;1.80;;;;;;;22.40;53.67;100878.72;5056901;28;20386;-62
2022/10/14 10:47:52;;;;;;;2.55;1.75;;;;;;;22.49;53.68;100872.03;5075162;28;20032;-62
2022/10/14 10:50:40;;;;;;;2.95;2.15;;;;;;;22.58;53.68;100870.75;5064005;28;20071;-62
2022/10/14 10:53:30;;;;;;;2.22;1.77;;;;;;;22.62;53.36;100877.50;5056843;28;20131;-62
2022/10/14 10:56:03;;;;;;;2.47;1.50;;;;;;;22.67;53.86;100873.38;5074838;28;20039;-62
2022/10/14 10:58:33;;;;;;;;;;;;;;;22.72;52.62;100870.84;5075143;28;20032;-62
2022/10/14 11:01:16;;;;;;;2.95;2.05;;;;;;;22.73;53.60;100873.34;5074956;28;19915;-62
2022/10/14 11:04:19;;;;;;;2.90;1.70;;;;;;;22.73;53.64;100877.97;5070883;28;20025;-62
2022/10/14 11:12:45;;;;;;;2.08;1.35;;;;;;;22.83;52.60;100856.56;5039304;28;20048;-62
2022/10/14 11:15:25;;;;;;;5.82;1.48;;;;;;;22.87;53.66;100866.03;5036633;28;20111;-63
2022/10/14 11:18:04;;;;;;;2.25;1.40;;;;;;;22.90;53.35;100855.53;5054409;28;20142;-62
2022/10/14 11:20:51;;;;;;;2.10;1.50;;;;;;;22.94;52.99;100853.22;5054359;28;20027;-62
2022/10/14 11:23:34;;;;;;;2.50;1.08;;;;;;;22.96;52.91;100851.97;5054282;28;20032;-62
2022/10/14 11:26:19;;;;;;;1.58;1.10;;;;;;;23.00;53.10;100857.84;5054149;28;20421;-62
2022/10/14 11:29:02;;;;;;;2.13;1.00;;;;;;;23.02;53.23;100850.28;5036361;28;20027;-62
2022/10/14 11:31:39;;;;;;;2.88;1.00;;;;;;;23.02;52.92;100847.56;5054048;28;20029;-62
2022/10/14 11:34:27;;;;;;;1.48;1.00;;;;;;;23.05;52.43;100852.59;5053369;28;20082;-62
2022/10/14 11:36:59;;;;;;;1.55;1.08;;;;;;;23.05;52.47;100849.88;5054020;28;20057;-63
2022/10/14 11:39:31;;;;;;;2.60;1.55;;;;;;;23.07;52.37;100842.28;5053974;28;20025;-62
2022/10/14 11:42:33;;;;;;;3.50;0.93;;;;;;;23.11;52.27;100844.41;5053899;28;20051;-62
2022/10/14 11:45:09;;;;;;;3.15;1.45;;;;;;;23.16;52.59;100835.56;5049240;28;20116;-62